KMDH Weather | Aviation | SIU

Home
Southern Illinois University

CONTACT

SIU.EDU

Aviation - Weather

College of Applied Sciences and Arts

KMDH Weather

NOTICE: Although all weather products are taken from the National Weather Service, this data should be used only as a supplement to a formal weather briefing.

Last Updated: Tuesday, June 25th, 2019, 11:19 pm
Information on this page is updated every 5 minutes.


METARS

KMDH 260352Z AUTO 00000KT 10SM CLR 22/19 A3007 RMK AO2 SLP178 T02220194

KMDH 260252Z AUTO 19003KT 10SM CLR 22/19 A3003 RMK AO2 SLP164 T02220194 53008

KMDH 260152Z 19005KT 10SM CLR 23/19 A3001 RMK AO2 SLP157 T02330194

KMWA 260415Z AUTO 00000KT 10SM CLR 21/20 A3009 RMK AO2 T02110202

KMWA 260355Z AUTO 00000KT 10SM CLR 20/20 A3008 RMK AO2 T02030198

KMWA 260335Z AUTO 00000KT 10SM CLR 20/20 A3007 RMK AO2 T02040199

KMWA 260315Z AUTO 00000KT 10SM CLR 23/20 A3005 RMK AO2 T02250200

KMWA 260255Z AUTO 00000KT 10SM CLR 22/20 A3004 RMK AO2 T02220200

KMWA 260235Z AUTO 20004KT 10SM CLR 23/20 A3003 RMK AO2 T02250198

KMWA 260215Z AUTO 19004KT 10SM CLR 22/20 A3002 RMK AO2 LTG DSNT N T02210195

KMWA 260155Z AUTO 00000KT 10SM CLR 23/20 A3002 RMK AO2 T02320196

KMWA 260135Z AUTO 19004KT 10SM CLR 23/20 A3002 RMK AO2 T02340200

KCGI 260353Z AUTO 00000KT 10SM CLR 23/20 A3006 RMK AO2 SLP175 T02330200

KCGI 260253Z AUTO 00000KT 10SM CLR 24/20 A3002 RMK AO2 SLP161 T02440200 53006

KCGI 260153Z AUTO 20004KT 10SM CLR 25/19 A3001 RMK AO2 SLP159 T02500194

KFAM 260256Z AUTO 00000KT 10SM CLR 23/20 A3006 RMK AO2 SLP181 T02280200 53014

KFAM 260156Z AUTO 18005KT 10SM CLR 24/20 A3002 RMK AO2 SLP168 T02390200

KMVN 260356Z AUTO 23004KT 10SM CLR A3006 RMK AO2 SLPNO FZRANO $

KMVN 260256Z AUTO 22003KT 10SM CLR A3003 RMK AO2 SLPNO 53010 FZRANO $

KMVN 260156Z AUTO 21006KT 10SM CLR A3000 RMK AO2 SLPNO FZRANO $

KHSB 260415Z AUTO 00000KT 10SM CLR 22/21 A3008 RMK AO2 T02170211

KHSB 260355Z AUTO 00000KT 10SM CLR 22/21 A3007 RMK AO2 T02160212

KHSB 260335Z AUTO 00000KT 10SM CLR 22/22 A3005 RMK AO2 T02200217

KCIR 260415Z AUTO 00000KT 10SM CLR 25/21 A3007 RMK AO2 T02500210

KCIR 260355Z AUTO 00000KT 10SM CLR 25/21 A3006 RMK AO2 T02500211

KCIR 260335Z AUTO 22004KT 10SM CLR 25/21 A3005 RMK AO2 T02500212

KPAH 260353Z 00000KT 10SM CLR 22/19 A3006 RMK AO2 SLP173 T02220194

KFAM 260356Z AUTO 00000KT 10SM CLR 22/20 A3009 RMK AO2 SLP190 T02220200

KBLV 260356Z AUTO 00000KT 10SM CLR 24/20 A3003 RMK AO2 SLPNO T02380195 $

KVIH 260417Z AUTO 15007KT 2 1/2SM HZ CLR 22/18 A3007 RMK AO2 T02170183 $

KVIH 260353Z AUTO 13005KT 10SM CLR 22/18 A3007 RMK AO2 SLP173 T02170178 $

KENL 260415Z AUTO 22006KT 10SM CLR 24/21 A3005 RMK AO2 T02350205

KENL 260355Z AUTO 22006KT 10SM CLR 23/21 A3005 RMK AO2 T02330205

KENL 260335Z AUTO 22006KT 10SM CLR 23/21 A3005 RMK AO2 T02320206

KMTO 260408Z AUTO 23004KT 7SM -RA FEW060 SCT070 BKN110 23/18 A3005 RMK AO2 LTG

KMTO 260353Z AUTO 22005KT 10SM VCTS CLR 24/18 A3004 RMK AO2 LTG DSNT NW SLP168

KMTO 260345Z AUTO 21006KT 10SM VCTS CLR 24/18 A3004 RMK AO2 LTG DSNT NW

KFWC 260355Z AUTO 00000KT 10SM CLR 22/20 A3006 RMK AO1 T02210195

KFWC 260335Z AUTO 00000KT 10SM CLR 22/20 A3005 RMK AO1 T02150199

KCUL 260355Z AUTO 00000KT 10SM CLR 21/20 A3006 RMK AO2

KCUL 260335Z AUTO 00000KT 10SM CLR 21/20 A3005 RMK AO2

KEVV 260354Z AUTO 00000KT 10SM CLR 22/19 A3007 RMK AO2 SLP179 T02220189

KCEY 260415Z AUTO 20004KT 10SM CLR 23/23 A3008 RMK AO1

KCEY 260355Z AUTO 20003KT 10SM CLR 24/22 A3007 RMK AO1

KCEY 260335Z AUTO 18003KT 10SM CLR 24/23 A3006 RMK AO1

KHOP 260356Z AUTO 00000KT 10SM CLR 25/20 A3007 RMK AO2 SLPNO T02450197

KJBR 260353Z AUTO 17004KT 10SM CLR 26/22 A3003 RMK AO2 SLP166 T02610222

KALN 260355Z AUTO 19004KT 10SM CLR 23/20 A3004 RMK AO2 T02340203 TSNO

KALN 260335Z AUTO 22005KT 10SM CLR 25/20 A3004 RMK AO2 T02490202 TSNO

KALN 260355Z AUTO 19004KT 10SM CLR 23/20 A3004 RMK AO2 T02340203 TSNO

KALN 260335Z AUTO 22005KT 10SM CLR 25/20 A3004 RMK AO2 T02490202 TSNO

KCOU 260354Z AUTO 13005KT 10SM CLR 24/18 A3001 RMK AO2 SLP155 T02390183

KAJG 260355Z AUTO 00000KT 10SM CLR 22/19 A3005 RMK AO2 T02200189

KAJG 260335Z AUTO 22003KT 10SM CLR 22/19 A3005 RMK AO2 T02200192

KM30 260355Z AUTO 00000KT 7SM CLR 22/20 A3007 RMK AO2 T02150202

KM30 260335Z AUTO 00000KT 5SM BR CLR 22/20 A3007 RMK AO2 T02150200

KDEC 260414Z AUTO 31006KT 10SM FEW080 SCT100 21/17 A3005 RMK AO2 LTG DSNT NE AND

KDEC 260402Z AUTO 30006KT 10SM VCTS FEW030 BKN090 21/17 A3006 RMK AO2 LTG DSNT

KDEC 260354Z AUTO 31009KT 10SM -TSRA FEW030 BKN080 OVC100 20/17 A3007 RMK AO2 PK

KIJX 260355Z AUTO 17003KT 10SM CLR 20/15 A3003 RMK AO2 LTG DSNT NE T01960151

KIJX 260335Z AUTO 00000KT 10SM CLR 20/15 A3005 RMK AO2 T01960151


TAFS

KEVV 252320Z 2600/2624 21003KT P6SM SCT250

        FM261500 21008KT P6SM SCT030


Winds Aloft



Pilot Reports

No pilot reports found for area.



Area Forecast



Significant Weather

WAUS45 KKCI 260245 SLCZ WA 260245 AIRMET ZULU FOR ICE AND FRZLVL VALID UNTIL 260900 AIRMET ICE...ID MT WY WA OR FROM 30NW FCA TO 70WSW GGW TO GGW TO 20WSW ISN TO 90SE MLS TO 30WNW SHR TO 20WSW BIL TO 60SSW LKT TO 30NW BOI TO 60NNE DSD TO 40ESE SEA TO 30NNW GEG TO 70S YXC TO 30NW FCA MOD ICE BTN FRZLVL AND FL180. FRZLVL 090-130. CONDS CONTG BYD 09Z THRU 15Z. FRZLVL...RANGING FROM 100-165 ACRS AREA 120 ALG 40WSW BOI-30W LKT-30NNW DLN-50SSW LWT-70WSW DIK 160 ALG 50S EED-20WNW PHX-20SE PHX-60SE TUS
WAUS46 KKCI 260245 SFOZ WA 260245 AIRMET ZULU FOR ICE AND FRZLVL VALID UNTIL 260900 AIRMET ICE...WA OR ID MT WY FROM 30NW FCA TO 70WSW GGW TO GGW TO 20WSW ISN TO 90SE MLS TO 30WNW SHR TO 20WSW BIL TO 60SSW LKT TO 30NW BOI TO 60NNE DSD TO 40ESE SEA TO 30NNW GEG TO 70S YXC TO 30NW FCA MOD ICE BTN FRZLVL AND FL180. FRZLVL 090-130. CONDS CONTG BYD 09Z THRU 15Z. FRZLVL...RANGING FROM 065-170 ACRS AREA 080 ALG 140WNW FOT-110NW FOT-30NE ONP-20WSW SEA-50SSW HUH- 40NNE TOU 120 ALG 130WSW PYE-50ESE RBL-40WSW BOI 160 ALG 190SSW RZS-110SW LAX-20NNW TRM-50S EED
WSUS33 KKCI 260255 SIGW CONVECTIVE SIGMET 12W VALID UNTIL 0455Z MT FROM 40NW BIL-30SW BIL-90WSW BIL-70SE HLN-40NW BIL AREA EMBD TS MOV FROM 24020KT. TOPS TO FL400. OUTLOOK VALID 260455-260855 TS ARE NOT EXPD TO REQUIRE WST ISSUANCES.
WSUS33 KKCI 260255 SIGW CONVECTIVE SIGMET 13W VALID UNTIL 0455Z MT WY FROM 20NE SHR-20N CZI-40W CZI-30WSW SHR-20NE SHR AREA TS MOV FROM 26030KT. TOPS TO FL440. OUTLOOK VALID 260455-260855 TS ARE NOT EXPD TO REQUIRE WST ISSUANCES.
WSUS32 KKCI 260255 SIGC CONVECTIVE SIGMET 27C VALID UNTIL 0455Z NE SD CO WY FROM 50SE RAP-70W ANW-40NNE DEN-50SW CYS-50SSW RAP-50SE RAP AREA SEV EMBD TS MOV FROM 27030KT. TOPS ABV FL450. HAIL TO 2 IN...WIND GUSTS TO 60KT POSS. OUTLOOK VALID 260455-260855 FROM DIK-40NE ABR-70NNW OVR-BVT-TTH-40ENE MCI-40W SGF-60W OSW-60SSW OBH-SNY-DIK REF WW 444 445. WST ISSUANCES EXPD. REFER TO MOST RECENT ACUS01 KWNS FROM STORM PREDICTION CENTER FOR SYNOPSIS AND METEOROLOGICAL DETAILS.